Time;durP1;ratioP1;P1;durP2;ratioP2;P2;SDS_P1;SDS_P2;PMS_P1;PMS_P2;Temp;Humidity;BMP_temperature;BMP_pressure;BME280_temperature;BME280_humidity;BME280_pressure;Samples;Min_cycle;Max_cycle;Signal;HPM_P1;HPM_P2
2021/12/11 05:09:39;;;;;;;24.80;15.73;;;;;;;5.55;79.07;99755.72;5594032;31;33688;-57
2021/12/11 05:12:44;;;;;;;25.98;15.38;;;;;;;6.20;76.36;99754.25;5599513;31;33626;-57
2021/12/11 05:15:49;;;;;;;22.83;14.57;;;;;;;6.16;71.60;99760.34;5583430;31;33527;-57
2021/12/11 05:18:52;;;;;;;21.52;13.80;;;;;;;6.43;81.26;99768.09;5569960;32;33572;-57
2021/12/11 05:21:54;;;;;;;23.77;15.07;;;;;;;6.56;75.36;99759.56;5579477;32;34234;-57
2021/12/11 05:24:58;;;;;;;21.62;13.65;;;;;;;6.14;65.86;99760.62;5572868;32;33523;-57
2021/12/11 05:28:00;;;;;;;22.58;14.25;;;;;;;5.95;66.67;99756.87;5563761;32;34202;-57
2021/12/11 05:31:06;;;;;;;26.20;14.60;;;;;;;5.96;76.19;99758.47;5563633;32;33571;-57
2021/12/11 05:34:08;;;;;;;24.50;15.73;;;;;;;6.42;72.23;99755.81;5564363;32;34244;-57
2021/12/11 05:37:12;;;;;;;25.33;15.30;;;;;;;6.05;66.85;99755.03;5573902;32;33598;-57
2021/12/11 05:40:19;;;;;;;24.58;15.90;;;;;;;5.68;67.78;99763.19;5583316;31;33584;-57
2021/12/11 05:43:21;;;;;;;24.55;15.77;;;;;;;6.06;79.85;99766.47;5583463;32;33526;-57
2021/12/11 05:46:24;;;;;;;27.13;16.20;;;;;;;5.90;67.03;99770.97;5581684;31;34214;-57
2021/12/11 05:49:28;;;;;;;26.33;16.55;;;;;;;5.91;80.89;99779.75;5583138;31;33562;-57
2021/12/11 05:52:30;;;;;;;24.40;15.82;;;;;;;6.06;67.63;99783.25;5582839;31;33723;-57
2021/12/11 05:55:35;;;;;;;25.05;15.32;;;;;;;6.44;82.73;99785.66;5582850;32;33597;-57
2021/12/11 05:58:48;;;;;;;22.70;15.18;;;;;;;5.86;67.06;99791.16;5582921;32;34221;-57
2021/12/11 06:02:01;;;;;;;24.65;14.85;;;;;;;6.39;81.69;99805.09;5578470;32;33565;-57
2021/12/11 06:05:04;;;;;;;26.20;15.38;;;;;;;6.00;66.54;99810.13;5562195;32;34290;-57
2021/12/11 06:08:09;;;;;;;23.90;14.77;;;;;;;5.97;69.22;99810.66;5552410;32;34270;-57
2021/12/11 06:11:14;;;;;;;22.83;14.32;;;;;;;5.98;75.51;99826.34;5550428;32;33575;-57
2021/12/11 06:14:18;;;;;;;24.58;15.45;;;;;;;5.75;66.33;99832.09;5550988;32;33165;-57
2021/12/11 06:17:24;;;;;;;24.10;15.02;;;;;;;5.94;68.37;99846.56;5560983;32;33618;-57
2021/12/11 06:20:29;;;;;;;23.23;14.27;;;;;;;6.35;75.41;99860.72;5560915;32;33604;-56
2021/12/11 06:23:38;;;;;;;22.55;13.62;;;;;;;6.45;84.41;99851.94;5562764;32;34483;-57
2021/12/11 06:26:42;;;;;;;24.42;15.18;;;;;;;6.66;77.26;99866.09;5568814;32;34637;-57
2021/12/11 06:29:45;;;;;;;22.98;14.38;;;;;;;6.31;65.80;99877.50;5566402;32;33553;-57
2021/12/11 06:32:48;;;;;;;24.48;15.48;;;;;;;6.28;75.15;99886.00;5569035;32;33633;-57
2021/12/11 06:36:03;;;;;;;22.55;15.10;;;;;;;6.37;81.55;99900.41;5568799;32;33800;-57
2021/12/11 06:39:11;;;;;;;21.87;14.23;;;;;;;6.30;80.81;99907.84;5561820;32;34056;-57
2021/12/11 06:42:14;;;;;;;24.02;14.65;;;;;;;6.18;75.44;99905.41;5552366;32;34336;-57
2021/12/11 06:45:18;;;;;;;25.58;14.87;;;;;;;6.52;70.22;99907.59;5569022;32;34293;-57
2021/12/11 06:48:21;;;;;;;22.90;14.65;;;;;;;6.00;66.90;99904.03;5568255;32;34492;-57
2021/12/11 06:51:24;;;;;;;20.50;13.70;;;;;;;5.96;76.90;99904.81;5566134;32;34285;-57
2021/12/11 06:54:26;;;;;;;23.95;14.52;;;;;;;5.78;76.53;99898.06;5568897;32;33308;-57
2021/12/11 06:57:29;;;;;;;22.70;14.85;;;;;;;5.99;68.46;99915.72;5552815;32;33785;-57
2021/12/11 07:00:31;;;;;;;22.52;14.68;;;;;;;6.10;66.30;99940.53;5554265;32;33679;-57
2021/12/11 07:03:36;;;;;;;25.77;15.30;;;;;;;5.98;74.81;99943.41;5568426;32;34432;-57
2021/12/11 07:06:42;;;;;;;23.02;14.85;;;;;;;6.50;83.02;99955.00;5567187;32;33663;-57
2021/12/11 07:09:45;;;;;;;21.52;14.32;;;;;;;6.20;66.37;99959.19;5559881;32;34283;-57
2021/12/11 07:12:49;;;;;;;22.42;14.18;;;;;;;6.07;67.22;99963.13;5564276;32;33720;-57
2021/12/11 07:15:52;;;;;;;21.67;13.93;;;;;;;5.75;65.52;99976.50;5562666;32;32432;-57
2021/12/11 07:18:55;;;;;;;21.73;14.20;;;;;;;5.81;66.67;99985.31;5556518;32;34291;-57
2021/12/11 07:21:57;;;;;;;21.48;13.30;;;;;;;5.60;67.00;99997.72;5564385;32;34224;-57
2021/12/11 07:25:35;;;;;;;21.92;14.63;;;;;;;5.55;67.61;100009.09;5561628;32;33668;-57
2021/12/11 07:28:37;;;;;;;24.67;15.00;;;;;;;5.49;67.33;100012.78;5547920;32;33762;-57
2021/12/11 07:31:43;;;;;;;21.62;13.38;;;;;;;5.42;67.63;100020.16;5561142;32;33587;-57
2021/12/11 07:34:45;;;;;;;22.67;13.82;;;;;;;5.57;66.21;100028.28;5549370;32;34242;-56
2021/12/11 07:37:50;;;;;;;20.05;12.90;;;;;;;5.49;67.70;100026.06;5564372;32;33571;-57
2021/12/11 07:40:57;;;;;;;22.00;13.73;;;;;;;5.70;75.15;100035.00;5568082;32;33449;-57
2021/12/11 07:44:00;;;;;;;22.33;14.48;;;;;;;5.69;73.23;100036.03;5568944;32;34332;-57
2021/12/11 07:47:03;;;;;;;21.05;13.43;;;;;;;6.15;77.27;100036.34;5558014;32;33601;-57
2021/12/11 07:50:06;;;;;;;19.67;12.25;;;;;;;6.30;70.17;100036.41;5548984;32;33704;-57
2021/12/11 07:53:10;;;;;;;18.10;12.32;;;;;;;6.04;66.12;100032.03;5564756;32;33063;-57
2021/12/11 07:56:13;;;;;;;15.20;10.70;;;;;;;5.91;72.40;100027.94;5568418;32;34316;-57
2021/12/11 07:59:15;;;;;;;15.45;10.98;;;;;;;5.97;64.83;100032.28;5566073;32;33163;-56
2021/12/11 08:02:18;;;;;;;15.90;10.57;;;;;;;5.83;65.54;100020.47;5567067;32;33640;-57
2021/12/11 08:05:22;;;;;;;14.68;10.18;;;;;;;5.67;64.86;100021.41;5567835;32;34394;-57
2021/12/11 08:08:26;;;;;;;16.45;9.82;;;;;;;5.74;70.24;100033.44;5557940;32;34271;-57
2021/12/11 08:11:28;;;;;;;19.48;10.93;;;;;;;5.82;66.13;100034.81;5567196;32;33265;-57
2021/12/11 08:14:31;;;;;;;15.23;9.95;;;;;;;5.56;66.29;100039.16;5552798;32;34292;-57
2021/12/11 08:17:33;;;;;;;16.08;9.55;;;;;;;5.50;66.21;100035.66;5567613;31;34404;-57
2021/12/11 08:20:37;;;;;;;15.35;8.77;;;;;;;5.63;65.13;100037.09;5567672;32;33798;-57
2021/12/11 08:23:44;;;;;;;14.65;9.60;;;;;;;6.01;66.63;100041.34;5567827;32;33574;-57
2021/12/11 08:26:50;;;;;;;13.60;8.45;;;;;;;5.75;65.13;100045.66;5558136;32;33786;-57
2021/12/11 08:29:53;;;;;;;13.68;8.38;;;;;;;5.72;66.59;100053.34;5548751;32;33545;-57
2021/12/11 08:32:55;;;;;;;12.82;8.55;;;;;;;6.18;82.71;100059.78;5549376;32;33752;-57
2021/12/11 08:35:58;;;;;;;11.43;7.80;;;;;;;5.91;63.72;100057.22;5557497;32;33765;-57
2021/12/11 08:39:01;;;;;;;12.52;7.78;;;;;;;5.73;64.21;100058.44;5559056;32;34246;-57
2021/12/11 08:42:07;;;;;;;11.30;7.65;;;;;;;5.61;71.43;100065.78;5567702;32;33708;-57
2021/12/11 08:45:20;;;;;;;11.80;7.95;;;;;;;5.68;64.83;100054.94;5567215;32;34407;-57
2021/12/11 08:48:26;;;;;;;11.50;7.97;;;;;;;5.81;83.75;100063.25;5564435;32;34370;-57
2021/12/11 08:51:34;;;;;;;12.10;8.15;;;;;;;5.67;66.35;100058.66;5568255;32;33619;-57
2021/12/11 08:54:38;;;;;;;11.15;7.45;;;;;;;6.14;77.43;100069.34;5561284;32;33596;-57
2021/12/11 08:57:41;;;;;;;10.20;7.32;;;;;;;6.11;67.09;100067.19;5557893;32;32468;-57
2021/12/11 09:01:19;;;;;;;11.25;8.00;;;;;;;5.91;63.89;100073.16;5561699;32;33368;-57
2021/12/11 09:04:39;;;;;;;10.35;6.87;;;;;;;6.54;76.85;100075.91;5525464;31;33569;-56
2021/12/11 09:07:54;;;;;;;10.38;7.20;;;;;;;6.37;65.46;100077.97;5556663;32;33860;-57
2021/12/11 09:11:03;;;;;;;11.25;7.57;;;;;;;6.33;67.16;100083.81;5553350;32;34308;-57
2021/12/11 09:14:13;;;;;;;10.93;6.90;;;;;;;5.73;64.52;100090.34;5558053;32;33662;-57
2021/12/11 09:17:22;;;;;;;11.90;8.48;;;;;;;6.05;67.00;100098.28;5560576;32;33699;-57
2021/12/11 09:20:34;;;;;;;10.43;6.75;;;;;;;6.58;88.95;100096.44;5552756;32;34311;-57
2021/12/11 09:23:45;;;;;;;12.90;7.05;;;;;;;5.96;66.45;100097.19;5563113;32;33230;-57
2021/12/11 09:26:53;;;;;;;13.85;9.10;;;;;;;6.06;65.27;100109.72;5566663;32;33700;-57
2021/12/11 09:30:10;;;;;;;12.00;8.57;;;;;;;6.30;67.96;100115.50;5567260;32;34238;-57
2021/12/11 09:33:17;;;;;;;10.93;7.65;;;;;;;6.55;74.42;100117.47;5567080;32;33735;-57
2021/12/11 09:36:25;;;;;;;15.63;7.70;;;;;;;6.07;64.27;100108.69;5567033;32;34328;-57
2021/12/11 09:39:53;;;;;;;11.85;7.50;;;;;;;6.26;63.93;100114.41;5566155;32;34379;-57
2021/12/11 09:42:54;;;;;;;11.52;8.00;;;;;;;6.38;64.60;100116.84;5569515;32;34219;-57
2021/12/11 09:45:58;;;;;;;12.93;8.48;;;;;;;6.18;63.99;100123.66;5569270;32;33536;-57
2021/12/11 09:49:02;;;;;;;10.80;7.18;;;;;;;5.83;64.56;100118.87;5568473;32;33573;-57
2021/12/11 09:52:18;;;;;;;13.55;7.62;;;;;;;5.66;66.19;100121.66;5561049;32;34332;-57
2021/12/11 09:55:24;;;;;;;10.20;7.27;;;;;;;6.02;66.23;100119.28;5568863;32;34277;-57
2021/12/11 09:58:32;;;;;;;11.55;7.35;;;;;;;6.04;63.79;100112.66;5566032;32;33528;-57
2021/12/11 10:01:44;;;;;;;11.02;7.65;;;;;;;6.23;76.96;100114.91;5560313;32;33790;-57
2021/12/11 10:05:19;;;;;;;12.45;8.15;;;;;;;6.18;64.10;100105.03;5556713;32;34355;-57
2021/12/11 10:08:57;;;;;;;11.27;8.02;;;;;;;6.41;76.37;100100.34;5550119;32;34362;-57
2021/12/11 10:12:07;;;;;;;10.60;6.90;;;;;;;6.21;64.05;100101.84;5556355;32;34279;-57
2021/12/11 10:15:27;;;;;;;10.65;7.43;;;;;;;6.22;64.40;100102.66;5550515;32;33846;-57
2021/12/11 10:18:30;;;;;;;10.60;7.30;;;;;;;5.99;64.08;100109.97;5557387;32;34411;-57
2021/12/11 10:21:43;;;;;;;11.02;7.60;;;;;;;6.41;74.99;100113.69;5566588;32;33748;-57
2021/12/11 10:24:50;;;;;;;11.80;7.68;;;;;;;6.49;71.91;100098.03;5560926;32;34391;-57
2021/12/11 10:27:52;;;;;;;13.13;8.20;;;;;;;6.45;67.57;100099.56;5561690;32;33626;-57
2021/12/11 10:31:06;;;;;;;12.93;8.18;;;;;;;6.49;72.17;100105.19;5558902;32;34418;-57
2021/12/11 10:34:15;;;;;;;11.38;8.00;;;;;;;5.70;64.52;100106.03;5561792;32;33673;-57
2021/12/11 10:37:24;;;;;;;12.98;8.68;;;;;;;5.97;69.77;100111.28;5565435;32;33590;-57
2021/12/11 10:40:35;;;;;;;10.85;7.82;;;;;;;6.14;64.23;100119.13;5568213;32;34237;-57
2021/12/11 10:44:00;;;;;;;13.23;9.02;;;;;;;6.44;64.03;100121.94;5569210;32;33694;-57
2021/12/11 10:47:11;;;;;;;12.55;8.55;;;;;;;6.60;78.84;100133.47;5562554;32;33757;-57
2021/12/11 10:50:38;;;;;;;11.43;8.15;;;;;;;6.69;65.41;100129.25;5561248;32;33669;-57
2021/12/11 10:53:42;;;;;;;13.93;9.27;;;;;;;6.61;78.05;100127.09;5550689;32;34371;-57
2021/12/11 10:56:47;;;;;;;13.03;9.37;;;;;;;6.91;79.00;100125.59;5556906;32;33551;-57
2021/12/11 10:59:53;;;;;;;12.00;8.35;;;;;;;7.16;64.71;100117.69;5563101;32;34064;-57
2021/12/11 11:02:56;;;;;;;10.90;7.35;;;;;;;6.53;63.59;100109.75;5557823;32;33668;-57
2021/12/11 11:05:58;;;;;;;12.02;7.90;;;;;;;6.49;72.45;100108.66;5564447;32;34495;-57
2021/12/11 11:09:02;;;;;;;11.80;7.45;;;;;;;6.49;70.31;100097.19;5558651;32;34296;-57
2021/12/11 11:12:11;;;;;;;10.98;7.60;;;;;;;6.66;66.48;100099.69;5556038;32;33659;-57
2021/12/11 11:15:18;;;;;;;12.10;7.68;;;;;;;6.57;62.51;100092.19;5549697;32;34387;-57
2021/12/11 11:18:22;;;;;;;12.13;8.50;;;;;;;6.27;63.57;100100.03;5566337;31;33681;-57
2021/12/11 11:21:38;;;;;;;11.15;7.72;;;;;;;6.28;71.16;100096.31;5560294;32;34387;-57
2021/12/11 11:24:48;;;;;;;11.35;7.65;;;;;;;6.03;74.51;100097.78;5553702;32;34327;-57
2021/12/11 11:27:57;;;;;;;11.80;7.50;;;;;;;6.11;65.06;100096.47;5554195;32;33626;-57
2021/12/11 11:31:06;;;;;;;12.70;8.55;;;;;;;5.72;65.39;100094.03;5568665;32;33823;-57
2021/12/11 11:34:13;;;;;;;11.52;7.93;;;;;;;6.25;70.19;100094.94;5567617;32;33784;-57
2021/12/11 11:37:17;;;;;;;;;;;;;;;6.53;81.50;100096.44;5569236;32;33655;-57
2021/12/11 11:40:24;;;;;;;9.80;6.53;;;;;;;6.55;70.04;100083.63;5569030;32;34043;-57
2021/12/11 11:43:27;;;;;;;9.68;6.78;;;;;;;6.70;64.71;100088.22;5569140;32;34094;-57
2021/12/11 11:46:29;;;;;;;11.95;8.10;;;;;;;6.59;66.61;100098.06;5568499;32;34451;-57
2021/12/11 11:49:33;;;;;;;12.27;7.72;;;;;;;6.74;66.30;100109.81;5561139;32;33770;-57
2021/12/11 11:52:35;;;;;;;13.73;8.75;;;;;;;6.50;62.54;100118.25;5568824;32;33737;-57
2021/12/11 11:55:47;;;;;;;13.60;8.40;;;;;;;6.68;80.08;100121.50;5581779;31;34381;-57
2021/12/11 11:58:51;;;;;;;14.20;8.43;;;;;;;7.00;68.17;100130.16;5566786;31;37294;-57
2021/12/11 12:02:00;;;;;;;13.57;9.10;;;;;;;6.74;64.49;100125.81;5568408;32;34189;-57
2021/12/11 12:05:05;;;;;;;13.15;9.32;;;;;;;6.52;63.73;100131.28;5568007;32;34487;-57
2021/12/11 12:08:10;;;;;;;12.98;9.02;;;;;;;6.97;81.79;100130.69;5565978;32;34278;-56
2021/12/11 12:11:13;;;;;;;16.08;10.00;;;;;;;6.93;63.67;100142.94;5556070;32;33362;-57
2021/12/11 12:14:19;;;;;;;16.00;10.25;;;;;;;7.06;68.05;100141.66;5558232;32;34429;-57
2021/12/11 12:17:25;;;;;;;13.85;9.88;;;;;;;7.08;64.01;100147.50;5557217;32;33323;-57
2021/12/11 12:20:27;;;;;;;13.57;9.98;;;;;;;7.20;80.70;100145.41;5559412;32;34311;-57
2021/12/11 12:23:31;;;;;;;13.15;9.63;;;;;;;7.20;65.43;100148.06;5549240;32;33888;-57
2021/12/11 12:26:36;;;;;;;14.40;10.55;;;;;;;7.06;71.30;100146.97;5556846;32;34270;-57
2021/12/11 12:29:41;;;;;;;15.73;10.15;;;;;;;6.95;62.96;100143.44;5560935;32;33826;-57
2021/12/11 12:32:43;;;;;;;15.63;10.35;;;;;;;6.67;63.15;100152.69;5557235;32;33267;-57
2021/12/11 12:35:46;;;;;;;17.10;11.12;;;;;;;7.06;68.17;100152.31;5559690;32;33827;-57
2021/12/11 12:38:50;;;;;;;15.43;10.75;;;;;;;7.04;73.49;100157.88;5549756;32;33641;-57
2021/12/11 12:42:08;;;;;;;19.25;11.68;;;;;;;7.25;66.51;100148.09;5548738;32;33659;-57
2021/12/11 12:45:19;;;;;;;17.92;11.57;;;;;;;7.27;65.45;100139.81;5548991;32;34228;-57
2021/12/11 12:48:22;;;;;;;19.08;12.37;;;;;;;7.07;63.58;100132.56;5554223;32;33925;-57
2021/12/11 12:51:25;;;;;;;18.23;11.52;;;;;;;6.86;71.78;100137.06;5568085;32;34260;-57
2021/12/11 12:54:28;;;;;;;16.92;11.57;;;;;;;7.43;75.68;100128.13;5567734;32;33677;-57
2021/12/11 12:57:40;;;;;;;17.17;11.50;;;;;;;7.02;64.33;100122.72;5567959;32;34268;-57
2021/12/11 13:00:57;;;;;;;19.33;12.30;;;;;;;6.47;65.28;100124.09;5567999;32;33926;-57
2021/12/11 13:04:02;;;;;;;16.05;10.82;;;;;;;6.50;71.14;100123.56;5566271;32;33965;-57
2021/12/11 13:07:08;;;;;;;17.85;11.43;;;;;;;6.86;65.27;100117.59;5567815;32;34541;-57
2021/12/11 13:10:17;;;;;;;20.52;11.10;;;;;;;6.66;65.86;100127.12;5567559;32;33632;-57
2021/12/11 13:13:22;;;;;;;18.67;12.73;;;;;;;6.70;66.93;100127.41;5567961;32;33683;-57
2021/12/11 13:16:30;;;;;;;20.12;13.05;;;;;;;6.13;65.64;100123.66;5560897;32;33492;-57
2021/12/11 13:19:38;;;;;;;20.60;13.30;;;;;;;6.51;71.71;100132.37;5563860;32;34298;-57
2021/12/11 13:22:43;;;;;;;20.40;12.98;;;;;;;6.40;70.84;100128.84;5569259;32;33839;-57
2021/12/11 13:25:59;;;;;;;21.17;12.27;;;;;;;7.13;70.25;100133.41;5568220;32;33780;-57
2021/12/11 13:29:07;;;;;;;17.12;11.25;;;;;;;7.12;66.15;100131.78;5554257;32;33737;-57
2021/12/11 13:32:16;;;;;;;18.08;12.27;;;;;;;7.03;70.08;100134.97;5555685;32;33774;-57
2021/12/11 13:35:23;;;;;;;20.45;12.90;;;;;;;6.95;64.94;100151.44;5570039;32;33384;-57
2021/12/11 13:38:28;;;;;;;18.58;12.57;;;;;;;7.08;70.38;100147.50;5569097;32;34336;-57
2021/12/11 13:41:34;;;;;;;19.40;12.13;;;;;;;6.82;69.13;100158.09;5557032;32;33867;-57
2021/12/11 13:44:52;;;;;;;19.92;13.15;;;;;;;6.51;64.58;100156.34;5570047;32;33258;-57
2021/12/11 13:47:56;;;;;;;20.98;13.23;;;;;;;6.24;67.56;100164.44;5569929;32;33660;-57
2021/12/11 13:51:06;;;;;;;19.37;13.00;;;;;;;6.65;76.06;100157.47;5559898;32;33737;-57
2021/12/11 13:54:09;;;;;;;19.85;12.48;;;;;;;6.90;65.21;100158.66;5559700;32;33822;-57
2021/12/11 13:57:14;;;;;;;21.62;13.40;;;;;;;7.03;67.60;100150.16;5557472;32;34293;-57
2021/12/11 14:00:25;;;;;;;22.33;14.18;;;;;;;6.78;65.33;100150.84;5560240;32;34209;-57
2021/12/11 14:03:44;;;;;;;22.35;13.98;;;;;;;6.62;65.21;100143.84;5569608;32;34287;-57
2021/12/11 14:07:10;;;;;;;22.95;14.68;;;;;;;6.86;65.46;100145.03;5570023;32;33769;-57
2021/12/11 14:10:27;;;;;;;23.38;14.75;;;;;;;6.57;66.28;100145.44;5569951;32;34301;-57
2021/12/11 14:13:31;;;;;;;25.25;15.13;;;;;;;6.48;77.22;100147.00;5568824;32;34309;-57
2021/12/11 14:16:34;;;;;;;22.70;13.90;;;;;;;6.83;80.61;100167.69;5564860;32;34330;-57
2021/12/11 14:19:37;;;;;;;23.42;14.57;;;;;;;7.08;68.67;100166.16;5577026;31;33713;-57
2021/12/11 14:22:40;;;;;;;24.30;14.45;;;;;;;6.92;74.84;100173.31;5562060;32;33877;-57
2021/12/11 14:25:42;;;;;;;21.20;13.70;;;;;;;7.31;68.88;100175.56;5566822;32;33691;-57
2021/12/11 14:28:45;;;;;;;27.17;16.33;;;;;;;7.30;81.54;100187.28;5569494;32;34341;-57
2021/12/11 14:31:47;;;;;;;21.17;14.57;;;;;;;7.18;69.10;100198.19;5568054;32;33757;-57
2021/12/11 14:34:52;;;;;;;29.92;18.70;;;;;;;6.91;63.94;100192.22;5565892;32;34110;-57
2021/12/11 14:37:56;;;;;;;21.23;14.40;;;;;;;6.52;67.86;100193.37;5568877;32;34228;-57
2021/12/11 14:40:59;;;;;;;23.92;14.82;;;;;;;6.46;65.10;100199.72;5568829;32;33574;-57
